MET'MAP v2.0
soon released !

Expected late october,
this new version will be
more efficient, smarter,
and hosted on a brand new
server x3 powerfull...
...and still free !


Not compatible ?
Try the mobile version !

LOG IN : | Subscribe | Disclaimer | Who is Orbifly ? |
ICAO code :

TAF - EPDE Deblin - 02 Jun 2020 05:11 UTC - Data Source NOAA   


- Airport Elevation : 392 ft
- No reported NOTAMs.


EPDE - Deblin

NO METAR
TAF TAF EPDE
Valid from the 02 at 03:00 until the 02 at 12:00 UTC


020200Z 0203/0212 31008KT CAVOK
BECMG 0206/0208 34018KT
TEMPO 0207/0212 35026KT

Source NOAA


MET'MAP, your aeronautical weather chart ! - Copyright ORBIFLY December 2007

Programming & Development : Alexandra Zaïnal
Co-Developer : Marc-Olivier Méhu
Technical & hardware support : Manuel Goepfert
Concept & Financing : Baudouin d'Aumeries